sensor_id;sensor_type;location;lat;lon;timestamp;temperature;humidity
7196;DHT22;3639;51.308;5.624;2023-08-24T00:02:07;19.00;99.90
7196;DHT22;3639;51.308;5.624;2023-08-24T00:04:33;19.00;99.90
7196;DHT22;3639;51.308;5.624;2023-08-24T00:06:59;18.90;99.90
7196;DHT22;3639;51.308;5.624;2023-08-24T00:09:25;18.90;99.90
7196;DHT22;3639;51.308;5.624;2023-08-24T00:11:51;18.80;99.90
7196;DHT22;3639;51.308;5.624;2023-08-24T00:14:17;18.80;99.90
7196;DHT22;3639;51.308;5.624;2023-08-24T00:16:42;18.80;99.90
7196;DHT22;3639;51.308;5.624;2023-08-24T00:19:08;18.80;99.90
7196;DHT22;3639;51.308;5.624;2023-08-24T00:21:33;18.80;99.90
7196;DHT22;3639;51.308;5.624;2023-08-24T00:23:59;18.80;99.90
7196;DHT22;3639;51.308;5.624;2023-08-24T00:26:25;18.80;99.90
7196;DHT22;3639;51.308;5.624;2023-08-24T00:28:51;18.70;99.90
7196;DHT22;3639;51.308;5.624;2023-08-24T00:31:17;18.70;99.90
7196;DHT22;3639;51.308;5.624;2023-08-24T00:33:43;18.60;99.90
7196;DHT22;3639;51.308;5.624;2023-08-24T00:36:09;18.60;99.90
7196;DHT22;3639;51.308;5.624;2023-08-24T00:38:34;18.60;99.90
7196;DHT22;3639;51.308;5.624;2023-08-24T00:41:00;18.60;99.90
7196;DHT22;3639;51.308;5.624;2023-08-24T00:43:26;18.60;99.90
7196;DHT22;3639;51.308;5.624;2023-08-24T00:45:54;18.60;99.90
7196;DHT22;3639;51.308;5.624;2023-08-24T00:48:21;18.70;99.90
7196;DHT22;3639;51.308;5.624;2023-08-24T00:50:52;18.60;99.90
7196;DHT22;3639;51.308;5.624;2023-08-24T00:53:18;18.60;99.90
7196;DHT22;3639;51.308;5.624;2023-08-24T00:55:44;18.60;99.90
7196;DHT22;3639;51.308;5.624;2023-08-24T00:58:10;18.60;99.90
7196;DHT22;3639;51.308;5.624;2023-08-24T01:00:36;18.70;99.90
7196;DHT22;3639;51.308;5.624;2023-08-24T01:03:03;18.60;99.90
7196;DHT22;3639;51.308;5.624;2023-08-24T01:05:28;18.60;99.90
7196;DHT22;3639;51.308;5.624;2023-08-24T01:07:54;18.60;99.90
7196;DHT22;3639;51.308;5.624;2023-08-24T01:10:20;18.60;99.90
7196;DHT22;3639;51.308;5.624;2023-08-24T01:13:03;18.60;99.90
7196;DHT22;3639;51.308;5.624;2023-08-24T01:16:06;18.50;99.90
7196;DHT22;3639;51.308;5.624;2023-08-24T01:18:34;18.50;99.90
7196;DHT22;3639;51.308;5.624;2023-08-24T01:21:02;18.50;99.90
7196;DHT22;3639;51.308;5.624;2023-08-24T01:23:43;18.50;99.90
7196;DHT22;3639;51.308;5.624;2023-08-24T01:26:14;18.40;99.90
7196;DHT22;3639;51.308;5.624;2023-08-24T01:28:43;18.40;99.90
7196;DHT22;3639;51.308;5.624;2023-08-24T01:31:09;18.40;99.90
7196;DHT22;3639;51.308;5.624;2023-08-24T01:33:35;18.40;99.90
7196;DHT22;3639;51.308;5.624;2023-08-24T01:36:01;18.40;99.90
7196;DHT22;3639;51.308;5.624;2023-08-24T01:38:27;18.40;99.90
7196;DHT22;3639;51.308;5.624;2023-08-24T01:40:59;18.40;99.90
7196;DHT22;3639;51.308;5.624;2023-08-24T01:43:29;18.30;99.90
7196;DHT22;3639;51.308;5.624;2023-08-24T01:45:56;18.30;99.90
7196;DHT22;3639;51.308;5.624;2023-08-24T01:48:24;18.30;99.90
7196;DHT22;3639;51.308;5.624;2023-08-24T01:50:51;18.20;99.90
7196;DHT22;3639;51.308;5.624;2023-08-24T01:53:17;18.20;99.90
7196;DHT22;3639;51.308;5.624;2023-08-24T01:55:44;18.20;99.90
7196;DHT22;3639;51.308;5.624;2023-08-24T01:58:10;18.20;99.90
7196;DHT22;3639;51.308;5.624;2023-08-24T02:00:35;18.30;99.90
7196;DHT22;3639;51.308;5.624;2023-08-24T02:03:01;18.30;99.90
7196;DHT22;3639;51.308;5.624;2023-08-24T02:05:27;18.30;99.90
7196;DHT22;3639;51.308;5.624;2023-08-24T02:07:54;18.40;99.90
7196;DHT22;3639;51.308;5.624;2023-08-24T02:10:20;18.40;99.90
7196;DHT22;3639;51.308;5.624;2023-08-24T02:12:45;18.40;99.90
7196;DHT22;3639;51.308;5.624;2023-08-24T02:15:11;18.40;99.90
7196;DHT22;3639;51.308;5.624;2023-08-24T02:17:37;18.40;99.90
7196;DHT22;3639;51.308;5.624;2023-08-24T02:20:02;18.40;99.90
7196;DHT22;3639;51.308;5.624;2023-08-24T02:22:29;18.40;99.90
7196;DHT22;3639;51.308;5.624;2023-08-24T02:24:55;18.30;99.90
7196;DHT22;3639;51.308;5.624;2023-08-24T02:27:21;18.30;99.90
7196;DHT22;3639;51.308;5.624;2023-08-24T02:29:47;18.20;99.90
7196;DHT22;3639;51.308;5.624;2023-08-24T02:32:12;18.20;99.90
7196;DHT22;3639;51.308;5.624;2023-08-24T02:34:38;18.30;99.90
7196;DHT22;3639;51.308;5.624;2023-08-24T02:37:04;18.30;99.90
7196;DHT22;3639;51.308;5.624;2023-08-24T02:39:30;18.30;99.90
7196;DHT22;3639;51.308;5.624;2023-08-24T02:41:55;18.20;99.90
7196;DHT22;3639;51.308;5.624;2023-08-24T02:44:21;18.20;99.90
7196;DHT22;3639;51.308;5.624;2023-08-24T02:46:48;18.20;99.90
7196;DHT22;3639;51.308;5.624;2023-08-24T02:49:13;18.20;99.90
7196;DHT22;3639;51.308;5.624;2023-08-24T02:51:39;18.20;99.90
7196;DHT22;3639;51.308;5.624;2023-08-24T02:54:06;18.20;99.90
7196;DHT22;3639;51.308;5.624;2023-08-24T02:56:31;18.20;99.90
7196;DHT22;3639;51.308;5.624;2023-08-24T02:58:57;18.20;99.90
7196;DHT22;3639;51.308;5.624;2023-08-24T03:01:22;18.30;99.90
7196;DHT22;3639;51.308;5.624;2023-08-24T03:03:48;18.30;99.90
7196;DHT22;3639;51.308;5.624;2023-08-24T03:06:14;18.40;99.90
7196;DHT22;3639;51.308;5.624;2023-08-24T03:08:39;18.40;99.90
7196;DHT22;3639;51.308;5.624;2023-08-24T03:11:05;18.40;99.90
7196;DHT22;3639;51.308;5.624;2023-08-24T03:13:31;18.30;99.90
7196;DHT22;3639;51.308;5.624;2023-08-24T03:15:57;18.30;99.90
7196;DHT22;3639;51.308;5.624;2023-08-24T03:18:23;18.20;99.90
7196;DHT22;3639;51.308;5.624;2023-08-24T03:20:49;18.10;99.90
7196;DHT22;3639;51.308;5.624;2023-08-24T03:23:15;18.00;99.90
7196;DHT22;3639;51.308;5.624;2023-08-24T03:25:42;18.00;99.90
7196;DHT22;3639;51.308;5.624;2023-08-24T03:28:08;18.00;99.90
7196;DHT22;3639;51.308;5.624;2023-08-24T03:30:38;18.00;99.90
7196;DHT22;3639;51.308;5.624;2023-08-24T03:33:05;17.90;99.90
7196;DHT22;3639;51.308;5.624;2023-08-24T03:35:31;17.90;99.90
7196;DHT22;3639;51.308;5.624;2023-08-24T03:37:57;17.90;99.90
7196;DHT22;3639;51.308;5.624;2023-08-24T03:40:22;17.90;99.90
7196;DHT22;3639;51.308;5.624;2023-08-24T03:42:48;17.90;99.90
7196;DHT22;3639;51.308;5.624;2023-08-24T03:45:14;17.80;99.90
7196;DHT22;3639;51.308;5.624;2023-08-24T03:47:39;17.80;99.90
7196;DHT22;3639;51.308;5.624;2023-08-24T03:50:05;17.80;99.90
7196;DHT22;3639;51.308;5.624;2023-08-24T03:52:31;17.80;99.90
7196;DHT22;3639;51.308;5.624;2023-08-24T03:54:57;17.80;99.90
7196;DHT22;3639;51.308;5.624;2023-08-24T03:57:23;17.80;99.90
7196;DHT22;3639;51.308;5.624;2023-08-24T03:59:48;17.80;99.90
7196;DHT22;3639;51.308;5.624;2023-08-24T04:02:14;17.80;99.90
7196;DHT22;3639;51.308;5.624;2023-08-24T04:04:40;17.90;99.90
7196;DHT22;3639;51.308;5.624;2023-08-24T04:07:05;17.90;99.90
7196;DHT22;3639;51.308;5.624;2023-08-24T04:09:31;17.90;99.90
7196;DHT22;3639;51.308;5.624;2023-08-24T04:11:57;17.90;99.90
7196;DHT22;3639;51.308;5.624;2023-08-24T04:14:22;17.90;99.90
7196;DHT22;3639;51.308;5.624;2023-08-24T04:16:48;17.90;99.90
7196;DHT22;3639;51.308;5.624;2023-08-24T04:19:14;17.90;99.90
7196;DHT22;3639;51.308;5.624;2023-08-24T04:21:39;17.90;99.90
7196;DHT22;3639;51.308;5.624;2023-08-24T04:24:05;17.90;99.90
7196;DHT22;3639;51.308;5.624;2023-08-24T04:26:31;17.90;99.90
7196;DHT22;3639;51.308;5.624;2023-08-24T04:28:56;17.90;99.90
7196;DHT22;3639;51.308;5.624;2023-08-24T04:31:22;17.90;99.90
7196;DHT22;3639;51.308;5.624;2023-08-24T04:33:47;17.90;99.90
7196;DHT22;3639;51.308;5.624;2023-08-24T04:36:13;17.90;99.90
7196;DHT22;3639;51.308;5.624;2023-08-24T04:38:38;17.90;99.90
7196;DHT22;3639;51.308;5.624;2023-08-24T04:41:07;17.90;99.90
7196;DHT22;3639;51.308;5.624;2023-08-24T04:43:33;17.90;99.90
7196;DHT22;3639;51.308;5.624;2023-08-24T04:45:59;17.90;99.90
7196;DHT22;3639;51.308;5.624;2023-08-24T04:48:25;18.00;99.90
7196;DHT22;3639;51.308;5.624;2023-08-24T04:50:58;17.90;99.90
7196;DHT22;3639;51.308;5.624;2023-08-24T04:53:24;18.00;99.90
7196;DHT22;3639;51.308;5.624;2023-08-24T04:55:50;18.00;99.90
7196;DHT22;3639;51.308;5.624;2023-08-24T04:58:15;18.00;99.90
7196;DHT22;3639;51.308;5.624;2023-08-24T05:00:41;18.00;99.90
7196;DHT22;3639;51.308;5.624;2023-08-24T05:03:08;18.00;99.90
7196;DHT22;3639;51.308;5.624;2023-08-24T05:05:34;18.00;99.90
7196;DHT22;3639;51.308;5.624;2023-08-24T05:08:01;18.00;99.90
7196;DHT22;3639;51.308;5.624;2023-08-24T05:10:32;18.10;99.90
7196;DHT22;3639;51.308;5.624;2023-08-24T05:12:58;18.00;99.90
7196;DHT22;3639;51.308;5.624;2023-08-24T05:15:23;18.00;99.90
7196;DHT22;3639;51.308;5.624;2023-08-24T05:17:49;18.00;99.90
7196;DHT22;3639;51.308;5.624;2023-08-24T05:20:15;18.00;99.90
7196;DHT22;3639;51.308;5.624;2023-08-24T05:22:41;18.10;99.90
7196;DHT22;3639;51.308;5.624;2023-08-24T05:25:07;18.00;99.90
7196;DHT22;3639;51.308;5.624;2023-08-24T05:27:32;18.10;99.90
7196;DHT22;3639;51.308;5.624;2023-08-24T05:29:58;18.10;99.90
7196;DHT22;3639;51.308;5.624;2023-08-24T05:32:24;18.10;99.90
7196;DHT22;3639;51.308;5.624;2023-08-24T05:34:50;18.10;99.90
7196;DHT22;3639;51.308;5.624;2023-08-24T05:37:16;18.10;99.90
7196;DHT22;3639;51.308;5.624;2023-08-24T05:39:41;18.10;99.90
7196;DHT22;3639;51.308;5.624;2023-08-24T05:42:08;18.10;99.90
7196;DHT22;3639;51.308;5.624;2023-08-24T05:44:34;18.20;99.90
7196;DHT22;3639;51.308;5.624;2023-08-24T05:47:00;18.20;99.90
7196;DHT22;3639;51.308;5.624;2023-08-24T05:49:26;18.10;99.90
7196;DHT22;3639;51.308;5.624;2023-08-24T05:51:52;18.10;99.90
7196;DHT22;3639;51.308;5.624;2023-08-24T05:54:18;18.00;99.90
7196;DHT22;3639;51.308;5.624;2023-08-24T05:56:47;18.00;99.90
7196;DHT22;3639;51.308;5.624;2023-08-24T05:59:16;18.00;99.90
7196;DHT22;3639;51.308;5.624;2023-08-24T06:01:42;18.00;99.90
7196;DHT22;3639;51.308;5.624;2023-08-24T06:04:08;18.00;99.90
7196;DHT22;3639;51.308;5.624;2023-08-24T06:06:34;18.00;99.90
7196;DHT22;3639;51.308;5.624;2023-08-24T06:09:00;18.10;99.90
7196;DHT22;3639;51.308;5.624;2023-08-24T06:11:25;18.20;99.90
7196;DHT22;3639;51.308;5.624;2023-08-24T06:13:51;18.20;99.90
7196;DHT22;3639;51.308;5.624;2023-08-24T06:16:19;18.30;99.90
7196;DHT22;3639;51.308;5.624;2023-08-24T06:18:45;18.30;99.90
7196;DHT22;3639;51.308;5.624;2023-08-24T06:21:11;18.40;99.90
7196;DHT22;3639;51.308;5.624;2023-08-24T06:23:36;18.50;99.90
7196;DHT22;3639;51.308;5.624;2023-08-24T06:26:02;18.60;99.90
7196;DHT22;3639;51.308;5.624;2023-08-24T06:28:27;18.70;99.90
7196;DHT22;3639;51.308;5.624;2023-08-24T06:30:55;18.80;99.90
7196;DHT22;3639;51.308;5.624;2023-08-24T06:33:20;18.80;99.90
7196;DHT22;3639;51.308;5.624;2023-08-24T06:35:46;19.00;99.90
7196;DHT22;3639;51.308;5.624;2023-08-24T06:38:13;19.10;99.90
7196;DHT22;3639;51.308;5.624;2023-08-24T06:40:39;19.20;99.90
7196;DHT22;3639;51.308;5.624;2023-08-24T06:43:04;19.30;99.90
7196;DHT22;3639;51.308;5.624;2023-08-24T06:45:31;19.30;99.90
7196;DHT22;3639;51.308;5.624;2023-08-24T06:47:57;19.40;99.90
7196;DHT22;3639;51.308;5.624;2023-08-24T06:50:22;19.50;99.90
7196;DHT22;3639;51.308;5.624;2023-08-24T06:52:48;19.60;99.90
7196;DHT22;3639;51.308;5.624;2023-08-24T06:55:14;19.70;99.90
7196;DHT22;3639;51.308;5.624;2023-08-24T06:57:40;19.80;99.90
7196;DHT22;3639;51.308;5.624;2023-08-24T07:00:06;19.90;99.90
7196;DHT22;3639;51.308;5.624;2023-08-24T07:02:35;20.10;99.90
7196;DHT22;3639;51.308;5.624;2023-08-24T07:05:03;20.20;99.90
7196;DHT22;3639;51.308;5.624;2023-08-24T07:07:34;20.30;99.90
7196;DHT22;3639;51.308;5.624;2023-08-24T07:09:59;20.40;99.90
7196;DHT22;3639;51.308;5.624;2023-08-24T07:12:25;20.60;99.90
7196;DHT22;3639;51.308;5.624;2023-08-24T07:14:51;20.70;99.90
7196;DHT22;3639;51.308;5.624;2023-08-24T07:17:16;20.80;99.90
7196;DHT22;3639;51.308;5.624;2023-08-24T07:19:42;20.90;99.90
7196;DHT22;3639;51.308;5.624;2023-08-24T07:22:07;21.00;99.90
7196;DHT22;3639;51.308;5.624;2023-08-24T07:24:33;21.10;99.90
7196;DHT22;3639;51.308;5.624;2023-08-24T07:27:01;21.30;99.90
7196;DHT22;3639;51.308;5.624;2023-08-24T07:29:28;21.50;99.90
7196;DHT22;3639;51.308;5.624;2023-08-24T07:31:53;21.60;99.90
7196;DHT22;3639;51.308;5.624;2023-08-24T07:34:19;21.80;99.90
7196;DHT22;3639;51.308;5.624;2023-08-24T07:36:45;21.90;99.90
7196;DHT22;3639;51.308;5.624;2023-08-24T07:39:13;22.00;99.90
7196;DHT22;3639;51.308;5.624;2023-08-24T07:41:38;22.20;99.90
7196;DHT22;3639;51.308;5.624;2023-08-24T07:44:04;22.30;99.90
7196;DHT22;3639;51.308;5.624;2023-08-24T07:46:30;22.50;99.90
7196;DHT22;3639;51.308;5.624;2023-08-24T07:48:55;22.60;99.90
7196;DHT22;3639;51.308;5.624;2023-08-24T07:51:21;22.70;99.90
7196;DHT22;3639;51.308;5.624;2023-08-24T07:53:47;22.90;99.90
7196;DHT22;3639;51.308;5.624;2023-08-24T07:56:14;23.10;99.90
7196;DHT22;3639;51.308;5.624;2023-08-24T07:58:40;23.30;99.90
7196;DHT22;3639;51.308;5.624;2023-08-24T08:01:05;23.50;99.90
7196;DHT22;3639;51.308;5.624;2023-08-24T08:03:31;23.60;99.90
7196;DHT22;3639;51.308;5.624;2023-08-24T08:05:56;23.70;99.90
7196;DHT22;3639;51.308;5.624;2023-08-24T08:08:23;23.70;99.90
7196;DHT22;3639;51.308;5.624;2023-08-24T08:10:57;23.80;99.90
7196;DHT22;3639;51.308;5.624;2023-08-24T08:13:24;23.80;99.90
7196;DHT22;3639;51.308;5.624;2023-08-24T08:15:49;23.90;99.90
7196;DHT22;3639;51.308;5.624;2023-08-24T08:18:15;24.00;99.90
7196;DHT22;3639;51.308;5.624;2023-08-24T08:20:40;24.00;99.90
7196;DHT22;3639;51.308;5.624;2023-08-24T08:23:06;23.90;99.90
7196;DHT22;3639;51.308;5.624;2023-08-24T08:25:31;24.10;99.90
7196;DHT22;3639;51.308;5.624;2023-08-24T08:27:57;24.20;99.90
7196;DHT22;3639;51.308;5.624;2023-08-24T08:30:22;24.20;99.90
7196;DHT22;3639;51.308;5.624;2023-08-24T08:32:48;24.50;99.90
7196;DHT22;3639;51.308;5.624;2023-08-24T08:35:16;24.70;99.90
7196;DHT22;3639;51.308;5.624;2023-08-24T08:37:42;24.70;99.90
7196;DHT22;3639;51.308;5.624;2023-08-24T08:40:10;24.90;99.90
7196;DHT22;3639;51.308;5.624;2023-08-24T08:42:37;24.80;99.90
7196;DHT22;3639;51.308;5.624;2023-08-24T08:45:04;24.80;99.90
7196;DHT22;3639;51.308;5.624;2023-08-24T08:47:33;25.00;99.90
7196;DHT22;3639;51.308;5.624;2023-08-24T08:49:59;25.10;99.90
7196;DHT22;3639;51.308;5.624;2023-08-24T08:52:28;25.20;99.90
7196;DHT22;3639;51.308;5.624;2023-08-24T08:54:54;25.20;99.90
7196;DHT22;3639;51.308;5.624;2023-08-24T08:57:21;25.10;99.90
7196;DHT22;3639;51.308;5.624;2023-08-24T08:59:48;25.30;99.90
7196;DHT22;3639;51.308;5.624;2023-08-24T09:02:16;25.50;99.90
7196;DHT22;3639;51.308;5.624;2023-08-24T09:04:44;25.50;99.90
7196;DHT22;3639;51.308;5.624;2023-08-24T09:07:10;25.50;99.90
7196;DHT22;3639;51.308;5.624;2023-08-24T09:09:38;25.70;99.90
7196;DHT22;3639;51.308;5.624;2023-08-24T09:12:06;25.80;99.90
7196;DHT22;3639;51.308;5.624;2023-08-24T09:14:32;25.90;99.90
7196;DHT22;3639;51.308;5.624;2023-08-24T09:16:58;25.80;99.90
7196;DHT22;3639;51.308;5.624;2023-08-24T09:19:32;26.00;99.90
7196;DHT22;3639;51.308;5.624;2023-08-24T09:21:59;26.00;99.90
7196;DHT22;3639;51.308;5.624;2023-08-24T09:24:35;26.10;99.90
7196;DHT22;3639;51.308;5.624;2023-08-24T09:27:15;26.10;99.90
7196;DHT22;3639;51.308;5.624;2023-08-24T09:29:41;26.10;99.90
7196;DHT22;3639;51.308;5.624;2023-08-24T09:32:08;26.20;99.90
7196;DHT22;3639;51.308;5.624;2023-08-24T09:34:36;26.40;99.90
7196;DHT22;3639;51.308;5.624;2023-08-24T09:37:02;26.60;99.90
7196;DHT22;3639;51.308;5.624;2023-08-24T09:39:30;26.70;99.90
7196;DHT22;3639;51.308;5.624;2023-08-24T09:42:00;26.80;99.90
7196;DHT22;3639;51.308;5.624;2023-08-24T09:44:30;26.80;99.90
7196;DHT22;3639;51.308;5.624;2023-08-24T09:46:55;26.90;99.90
7196;DHT22;3639;51.308;5.624;2023-08-24T09:49:21;27.00;99.90
7196;DHT22;3639;51.308;5.624;2023-08-24T09:51:47;27.10;99.90
7196;DHT22;3639;51.308;5.624;2023-08-24T09:54:15;27.10;99.90
7196;DHT22;3639;51.308;5.624;2023-08-24T09:56:42;27.10;99.90
7196;DHT22;3639;51.308;5.624;2023-08-24T09:59:16;27.10;99.90
7196;DHT22;3639;51.308;5.624;2023-08-24T10:01:48;27.10;99.90
7196;DHT22;3639;51.308;5.624;2023-08-24T10:04:17;27.30;99.90
7196;DHT22;3639;51.308;5.624;2023-08-24T10:06:44;27.20;99.90
7196;DHT22;3639;51.308;5.624;2023-08-24T10:09:25;27.20;99.90
7196;DHT22;3639;51.308;5.624;2023-08-24T10:11:58;27.30;99.90
7196;DHT22;3639;51.308;5.624;2023-08-24T10:14:47;27.30;99.90
7196;DHT22;3639;51.308;5.624;2023-08-24T10:17:14;27.50;99.90
7196;DHT22;3639;51.308;5.624;2023-08-24T10:19:42;27.60;99.90
7196;DHT22;3639;51.308;5.624;2023-08-24T10:22:09;27.50;99.90
7196;DHT22;3639;51.308;5.624;2023-08-24T10:24:35;27.50;99.90
7196;DHT22;3639;51.308;5.624;2023-08-24T10:27:02;27.40;99.90
7196;DHT22;3639;51.308;5.624;2023-08-24T10:29:29;27.30;99.90
7196;DHT22;3639;51.308;5.624;2023-08-24T10:31:55;27.40;99.90
7196;DHT22;3639;51.308;5.624;2023-08-24T10:34:22;27.30;99.90
7196;DHT22;3639;51.308;5.624;2023-08-24T10:36:48;27.30;99.90
7196;DHT22;3639;51.308;5.624;2023-08-24T10:39:17;27.30;99.90
7196;DHT22;3639;51.308;5.624;2023-08-24T10:41:50;27.10;99.90
7196;DHT22;3639;51.308;5.624;2023-08-24T10:44:24;27.00;99.90
7196;DHT22;3639;51.308;5.624;2023-08-24T10:47:29;26.90;99.90
7196;DHT22;3639;51.308;5.624;2023-08-24T10:54:55;26.10;99.90
7196;DHT22;3639;51.308;5.624;2023-08-24T10:57:38;25.90;99.90
7196;DHT22;3639;51.308;5.624;2023-08-24T11:00:04;25.80;99.90
7196;DHT22;3639;51.308;5.624;2023-08-24T11:02:44;25.70;99.90
7196;DHT22;3639;51.308;5.624;2023-08-24T11:05:21;25.70;99.90
7196;DHT22;3639;51.308;5.624;2023-08-24T11:08:00;25.70;99.90
7196;DHT22;3639;51.308;5.624;2023-08-24T11:10:32;25.70;99.90
7196;DHT22;3639;51.308;5.624;2023-08-24T11:21:00;25.80;99.90
7196;DHT22;3639;51.308;5.624;2023-08-24T11:23:30;25.70;99.90
7196;DHT22;3639;51.308;5.624;2023-08-24T11:25:57;25.70;99.90
7196;DHT22;3639;51.308;5.624;2023-08-24T11:28:27;25.60;99.90
7196;DHT22;3639;51.308;5.624;2023-08-24T11:30:54;25.60;99.90
7196;DHT22;3639;51.308;5.624;2023-08-24T11:33:30;25.50;99.90
7196;DHT22;3639;51.308;5.624;2023-08-24T11:35:57;25.30;99.90
7196;DHT22;3639;51.308;5.624;2023-08-24T11:38:23;25.10;99.90
7196;DHT22;3639;51.308;5.624;2023-08-24T11:40:50;25.00;99.90
7196;DHT22;3639;51.308;5.624;2023-08-24T11:43:25;24.90;99.90
7196;DHT22;3639;51.308;5.624;2023-08-24T11:45:53;24.80;99.90
7196;DHT22;3639;51.308;5.624;2023-08-24T11:48:26;24.50;99.90
7196;DHT22;3639;51.308;5.624;2023-08-24T11:50:55;24.20;99.90
7196;DHT22;3639;51.308;5.624;2023-08-24T11:53:21;24.10;99.90
7196;DHT22;3639;51.308;5.624;2023-08-24T11:55:48;24.00;99.90
7196;DHT22;3639;51.308;5.624;2023-08-24T11:58:14;24.00;99.90
7196;DHT22;3639;51.308;5.624;2023-08-24T12:00:42;24.00;99.90
7196;DHT22;3639;51.308;5.624;2023-08-24T12:03:08;24.10;99.90
7196;DHT22;3639;51.308;5.624;2023-08-24T12:05:34;24.10;99.90
7196;DHT22;3639;51.308;5.624;2023-08-24T12:08:00;24.20;99.90
7196;DHT22;3639;51.308;5.624;2023-08-24T12:10:26;24.50;99.90
7196;DHT22;3639;51.308;5.624;2023-08-24T12:13:04;24.80;99.90
7196;DHT22;3639;51.308;5.624;2023-08-24T12:15:36;25.00;99.90
7196;DHT22;3639;51.308;5.624;2023-08-24T12:18:12;25.30;99.90
7196;DHT22;3639;51.308;5.624;2023-08-24T12:20:39;25.30;99.90
7196;DHT22;3639;51.308;5.624;2023-08-24T12:23:06;25.40;99.90
7196;DHT22;3639;51.308;5.624;2023-08-24T12:25:36;25.50;99.90
7196;DHT22;3639;51.308;5.624;2023-08-24T12:28:13;25.60;99.90
7196;DHT22;3639;51.308;5.624;2023-08-24T12:30:48;25.70;99.90
7196;DHT22;3639;51.308;5.624;2023-08-24T12:33:28;25.60;99.90
7196;DHT22;3639;51.308;5.624;2023-08-24T12:35:55;25.70;99.90
7196;DHT22;3639;51.308;5.624;2023-08-24T12:38:21;25.70;99.90
7196;DHT22;3639;51.308;5.624;2023-08-24T12:40:47;25.70;99.90
7196;DHT22;3639;51.308;5.624;2023-08-24T12:43:13;25.80;99.90
7196;DHT22;3639;51.308;5.624;2023-08-24T12:45:39;25.80;99.90
7196;DHT22;3639;51.308;5.624;2023-08-24T12:48:05;25.80;99.90
7196;DHT22;3639;51.308;5.624;2023-08-24T12:50:36;25.90;99.90
7196;DHT22;3639;51.308;5.624;2023-08-24T12:53:01;25.90;99.90
7196;DHT22;3639;51.308;5.624;2023-08-24T12:55:28;25.90;99.90
7196;DHT22;3639;51.308;5.624;2023-08-24T12:57:54;26.00;99.90
7196;DHT22;3639;51.308;5.624;2023-08-24T13:00:20;26.10;99.90
7196;DHT22;3639;51.308;5.624;2023-08-24T13:02:50;26.20;99.90
7196;DHT22;3639;51.308;5.624;2023-08-24T13:05:16;26.20;99.90
7196;DHT22;3639;51.308;5.624;2023-08-24T13:07:41;26.20;99.90
7196;DHT22;3639;51.308;5.624;2023-08-24T13:10:07;26.20;99.90
7196;DHT22;3639;51.308;5.624;2023-08-24T13:12:34;26.10;99.90
7196;DHT22;3639;51.308;5.624;2023-08-24T13:15:00;26.00;99.90
7196;DHT22;3639;51.308;5.624;2023-08-24T13:17:27;25.90;99.90
7196;DHT22;3639;51.308;5.624;2023-08-24T13:19:52;25.80;99.90
7196;DHT22;3639;51.308;5.624;2023-08-24T13:22:18;25.70;99.90
7196;DHT22;3639;51.308;5.624;2023-08-24T13:24:43;25.60;99.90
7196;DHT22;3639;51.308;5.624;2023-08-24T13:27:10;25.50;99.90
7196;DHT22;3639;51.308;5.624;2023-08-24T13:29:36;25.40;99.90
7196;DHT22;3639;51.308;5.624;2023-08-24T13:32:03;25.30;99.90
7196;DHT22;3639;51.308;5.624;2023-08-24T13:34:29;25.30;99.90
7196;DHT22;3639;51.308;5.624;2023-08-24T13:36:58;25.30;99.90
7196;DHT22;3639;51.308;5.624;2023-08-24T13:39:27;25.20;99.90
7196;DHT22;3639;51.308;5.624;2023-08-24T13:42:01;25.10;99.90
7196;DHT22;3639;51.308;5.624;2023-08-24T13:44:27;25.00;99.90
7196;DHT22;3639;51.308;5.624;2023-08-24T13:46:53;24.90;99.90
7196;DHT22;3639;51.308;5.624;2023-08-24T13:49:19;24.80;99.90
7196;DHT22;3639;51.308;5.624;2023-08-24T13:51:44;24.80;99.90
7196;DHT22;3639;51.308;5.624;2023-08-24T13:54:17;24.70;99.90
7196;DHT22;3639;51.308;5.624;2023-08-24T13:56:45;24.60;99.90
7196;DHT22;3639;51.308;5.624;2023-08-24T13:59:11;24.40;99.90
7196;DHT22;3639;51.308;5.624;2023-08-24T14:01:37;24.20;99.90
7196;DHT22;3639;51.308;5.624;2023-08-24T14:04:03;24.10;99.90
7196;DHT22;3639;51.308;5.624;2023-08-24T14:06:30;24.00;99.90
7196;DHT22;3639;51.308;5.624;2023-08-24T14:08:57;24.00;99.90
7196;DHT22;3639;51.308;5.624;2023-08-24T14:11:22;23.90;99.90
7196;DHT22;3639;51.308;5.624;2023-08-24T14:13:48;23.80;99.90
7196;DHT22;3639;51.308;5.624;2023-08-24T14:16:14;23.70;99.90
7196;DHT22;3639;51.308;5.624;2023-08-24T14:18:39;23.70;99.90
7196;DHT22;3639;51.308;5.624;2023-08-24T14:21:05;23.60;99.90
7196;DHT22;3639;51.308;5.624;2023-08-24T14:23:31;23.50;99.90
7196;DHT22;3639;51.308;5.624;2023-08-24T14:25:56;23.40;99.90
7196;DHT22;3639;51.308;5.624;2023-08-24T14:28:23;23.40;99.90
7196;DHT22;3639;51.308;5.624;2023-08-24T14:30:52;23.30;99.90
7196;DHT22;3639;51.308;5.624;2023-08-24T14:33:17;23.30;99.90
7196;DHT22;3639;51.308;5.624;2023-08-24T14:35:53;23.30;99.90
7196;DHT22;3639;51.308;5.624;2023-08-24T14:38:19;23.10;99.90
7196;DHT22;3639;51.308;5.624;2023-08-24T14:40:44;23.10;99.90
7196;DHT22;3639;51.308;5.624;2023-08-24T14:43:10;23.10;99.90
7196;DHT22;3639;51.308;5.624;2023-08-24T14:45:36;23.10;99.90
7196;DHT22;3639;51.308;5.624;2023-08-24T14:48:02;23.00;99.90
7196;DHT22;3639;51.308;5.624;2023-08-24T14:50:28;23.00;99.90
7196;DHT22;3639;51.308;5.624;2023-08-24T14:52:53;23.00;99.90
7196;DHT22;3639;51.308;5.624;2023-08-24T14:55:19;22.90;99.90
7196;DHT22;3639;51.308;5.624;2023-08-24T14:57:44;23.00;99.90
7196;DHT22;3639;51.308;5.624;2023-08-24T15:00:10;22.90;99.90
7196;DHT22;3639;51.308;5.624;2023-08-24T15:02:36;22.80;99.90
7196;DHT22;3639;51.308;5.624;2023-08-24T15:05:07;22.80;99.90
7196;DHT22;3639;51.308;5.624;2023-08-24T15:07:32;22.90;99.90
7196;DHT22;3639;51.308;5.624;2023-08-24T15:09:58;22.90;99.90
7196;DHT22;3639;51.308;5.624;2023-08-24T15:12:24;23.00;99.90
7196;DHT22;3639;51.308;5.624;2023-08-24T15:15:00;22.90;99.90
7196;DHT22;3639;51.308;5.624;2023-08-24T15:17:26;22.80;99.90
7196;DHT22;3639;51.308;5.624;2023-08-24T15:19:53;22.80;99.90
7196;DHT22;3639;51.308;5.624;2023-08-24T15:22:19;22.80;99.90
7196;DHT22;3639;51.308;5.624;2023-08-24T15:24:45;22.80;99.90
7196;DHT22;3639;51.308;5.624;2023-08-24T15:27:10;22.80;99.90
7196;DHT22;3639;51.308;5.624;2023-08-24T15:29:36;22.80;99.90
7196;DHT22;3639;51.308;5.624;2023-08-24T15:32:01;22.80;99.90
7196;DHT22;3639;51.308;5.624;2023-08-24T15:34:27;22.80;99.90
7196;DHT22;3639;51.308;5.624;2023-08-24T15:36:53;22.90;99.90
7196;DHT22;3639;51.308;5.624;2023-08-24T15:39:19;23.00;99.90
7196;DHT22;3639;51.308;5.624;2023-08-24T15:41:45;23.20;99.90
7196;DHT22;3639;51.308;5.624;2023-08-24T15:44:10;23.30;99.90
7196;DHT22;3639;51.308;5.624;2023-08-24T15:46:37;23.40;99.90
7196;DHT22;3639;51.308;5.624;2023-08-24T15:49:03;23.40;99.90
7196;DHT22;3639;51.308;5.624;2023-08-24T15:51:29;23.40;99.90
7196;DHT22;3639;51.308;5.624;2023-08-24T15:53:54;23.40;99.90
7196;DHT22;3639;51.308;5.624;2023-08-24T15:56:20;23.50;99.90
7196;DHT22;3639;51.308;5.624;2023-08-24T15:58:46;23.40;99.90
7196;DHT22;3639;51.308;5.624;2023-08-24T16:01:11;23.40;99.90
7196;DHT22;3639;51.308;5.624;2023-08-24T16:03:37;23.40;99.90
7196;DHT22;3639;51.308;5.624;2023-08-24T16:06:03;23.30;99.90
7196;DHT22;3639;51.308;5.624;2023-08-24T16:08:28;23.40;99.90
7196;DHT22;3639;51.308;5.624;2023-08-24T16:10:57;23.30;99.90
7196;DHT22;3639;51.308;5.624;2023-08-24T16:13:23;23.40;99.90
7196;DHT22;3639;51.308;5.624;2023-08-24T16:15:49;23.40;99.90